<?xml version='1.0' encoding='UTF-8'?><gpx version="1.1" creator="JPX - https://github.com/jenetics/jpx" xmlns="http://www.topografix.com/GPX/1/1"><trk><trkseg><trkpt lat="43.7576146" lon="11.1805917"><ele>43.0</ele><time>2026-04-22T11:06:16.063Z</time></trkpt><trkpt lat="43.7575651" lon="11.1804955"><ele>43.0</ele><time>2026-04-22T11:06:17.04Z</time></trkpt><trkpt lat="43.7575056" lon="11.1804132"><ele>43.0</ele><time>2026-04-22T11:06:18.097Z</time></trkpt><trkpt lat="43.7576073" lon="11.180527"><ele>43.0</ele><time>2026-04-22T11:06:22.178Z</time></trkpt><trkpt lat="43.7575826" lon="11.1810912"><ele>43.66666666666667</ele><time>2026-04-22T11:06:23.161Z</time></trkpt><trkpt lat="43.7575709" lon="11.1813731"><ele>44.333333333333336</ele><time>2026-04-22T11:06:24.199Z</time></trkpt><trkpt lat="43.7575436" lon="11.1811109"><ele>45.0</ele><time>2026-04-22T11:06:25.197Z</time></trkpt><trkpt lat="43.7575422" lon="11.1809778"><ele>45.0</ele><time>2026-04-22T11:06:26.219Z</time></trkpt><trkpt lat="43.7575654" lon="11.1808933"><ele>45.0</ele><time>2026-04-22T11:06:28.221Z</time></trkpt><trkpt lat="43.7575673" lon="11.1807857"><ele>45.0</ele><time>2026-04-22T11:06:31.323Z</time></trkpt><trkpt lat="43.7576284" lon="11.1807631"><ele>45.0</ele><time>2026-04-22T11:06:35.381Z</time></trkpt><trkpt lat="43.7577055" lon="11.1807572"><ele>45.0</ele><time>2026-04-22T11:06:41.298Z</time></trkpt><trkpt lat="43.7577831" lon="11.1807635"><ele>45.0</ele><time>2026-04-22T11:06:46.397Z</time></trkpt><trkpt lat="43.7578343" lon="11.1807024"><ele>45.0</ele><time>2026-04-22T11:06:51.395Z</time></trkpt><trkpt lat="43.7579017" lon="11.1806819"><ele>44.833333333333336</ele><time>2026-04-22T11:06:54.354Z</time></trkpt><trkpt lat="43.7579622" lon="11.1806388"><ele>44.666666666666664</ele><time>2026-04-22T11:06:57.373Z</time></trkpt><trkpt lat="43.7580327" lon="11.1805612"><ele>44.5</ele><time>2026-04-22T11:07:00.877Z</time></trkpt><trkpt lat="43.7580958" lon="11.1805371"><ele>44.33333333333333</ele><time>2026-04-22T11:07:04.439Z</time></trkpt><trkpt lat="43.7581517" lon="11.180455"><ele>44.166666666666664</ele><time>2026-04-22T11:07:07.34Z</time></trkpt><trkpt lat="43.7582069" lon="11.1803914"><ele>44.0</ele><time>2026-04-22T11:07:10.479Z</time></trkpt><trkpt lat="43.7582607" lon="11.1803168"><ele>44.0</ele><time>2026-04-22T11:07:13.46Z</time></trkpt><trkpt lat="43.7583181" lon="11.1802706"><ele>44.0</ele><time>2026-04-22T11:07:16.395Z</time></trkpt><trkpt lat="43.7583805" lon="11.1802141"><ele>44.0</ele><time>2026-04-22T11:07:19.438Z</time></trkpt><trkpt lat="43.7584387" lon="11.1801419"><ele>44.0</ele><time>2026-04-22T11:07:23.46Z</time></trkpt><trkpt lat="43.7584855" lon="11.1800805"><ele>44.0</ele><time>2026-04-22T11:07:26.394Z</time></trkpt><trkpt lat="43.7585479" lon="11.1800094"><ele>44.0</ele><time>2026-04-22T11:07:30.358Z</time></trkpt><trkpt lat="43.7585946" lon="11.1799347"><ele>44.0</ele><time>2026-04-22T11:07:34.437Z</time></trkpt><trkpt lat="43.7586449" lon="11.1798736"><ele>44.57142857142857</ele><time>2026-04-22T11:07:38.458Z</time></trkpt><trkpt lat="43.7586878" lon="11.1797922"><ele>45.14285714285714</ele><time>2026-04-22T11:07:43.297Z</time></trkpt><trkpt lat="43.7587239" lon="11.1797149"><ele>45.71428571428571</ele><time>2026-04-22T11:07:47.371Z</time></trkpt><trkpt lat="43.7587577" lon="11.1796263"><ele>46.285714285714285</ele><time>2026-04-22T11:07:52.37Z</time></trkpt><trkpt lat="43.7587987" lon="11.1795347"><ele>46.857142857142854</ele><time>2026-04-22T11:07:57.336Z</time></trkpt><trkpt lat="43.7588396" lon="11.1794532"><ele>47.42857142857142</ele><time>2026-04-22T11:08:01.476Z</time></trkpt><trkpt lat="43.7588815" lon="11.1793796"><ele>48.0</ele><time>2026-04-22T11:08:05.413Z</time></trkpt><trkpt lat="43.7589177" lon="11.1792859"><ele>47.99999999999999</ele><time>2026-04-22T11:08:10.411Z</time></trkpt><trkpt lat="43.7589541" lon="11.1792074"><ele>48.0</ele><time>2026-04-22T11:08:14.399Z</time></trkpt><trkpt lat="43.7589971" lon="11.1791242"><ele>48.0</ele><time>2026-04-22T11:08:19.616Z</time></trkpt><trkpt lat="43.7590409" lon="11.1790347"><ele>48.0</ele><time>2026-04-22T11:08:24.897Z</time></trkpt><trkpt lat="43.7590679" lon="11.1789537"><ele>48.0</ele><time>2026-04-22T11:08:29.096Z</time></trkpt><trkpt lat="43.7591125" lon="11.1788773"><ele>47.99999999999999</ele><time>2026-04-22T11:08:33.262Z</time></trkpt><trkpt lat="43.7591475" lon="11.178786"><ele>48.0</ele><time>2026-04-22T11:08:38.319Z</time></trkpt><trkpt lat="43.7591849" lon="11.1786971"><ele>47.42857142857142</ele><time>2026-04-22T11:08:43.45Z</time></trkpt><trkpt lat="43.759215" lon="11.1786162"><ele>46.857142857142854</ele><time>2026-04-22T11:08:47.473Z</time></trkpt><trkpt lat="43.7592438" lon="11.1785252"><ele>46.285714285714285</ele><time>2026-04-22T11:08:52.472Z</time></trkpt><trkpt lat="43.7592807" lon="11.1784439"><ele>45.71428571428571</ele><time>2026-04-22T11:08:57.398Z</time></trkpt><trkpt lat="43.7593418" lon="11.1783821"><ele>45.14285714285714</ele><time>2026-04-22T11:09:02.469Z</time></trkpt><trkpt lat="43.7593936" lon="11.178332"><ele>44.57142857142857</ele><time>2026-04-22T11:09:07.469Z</time></trkpt><trkpt lat="43.7594529" lon="11.1783721"><ele>44.0</ele><time>2026-04-22T11:09:17.419Z</time></trkpt><trkpt lat="43.7595111" lon="11.1784191"><ele>43.714285714285715</ele><time>2026-04-22T11:09:22.466Z</time></trkpt><trkpt lat="43.7595664" lon="11.1784625"><ele>43.42857142857143</ele><time>2026-04-22T11:09:26.379Z</time></trkpt><trkpt lat="43.7596238" lon="11.1785151"><ele>43.14285714285714</ele><time>2026-04-22T11:09:30.421Z</time></trkpt><trkpt lat="43.7596832" lon="11.1785694"><ele>42.85714285714286</ele><time>2026-04-22T11:09:35.399Z</time></trkpt><trkpt lat="43.7597446" lon="11.1786159"><ele>42.57142857142857</ele><time>2026-04-22T11:09:40.36Z</time></trkpt><trkpt lat="43.7598094" lon="11.1786752"><ele>42.285714285714285</ele><time>2026-04-22T11:09:45.397Z</time></trkpt><trkpt lat="43.7598662" lon="11.1787196"><ele>42.0</ele><time>2026-04-22T11:09:49.418Z</time></trkpt><trkpt lat="43.759928" lon="11.1787734"><ele>42.0</ele><time>2026-04-22T11:09:54.479Z</time></trkpt><trkpt lat="43.7599927" lon="11.1787988"><ele>42.0</ele><time>2026-04-22T11:10:01.374Z</time></trkpt><trkpt lat="43.7600419" lon="11.1788739"><ele>42.0</ele><time>2026-04-22T11:10:06.373Z</time></trkpt><trkpt lat="43.7601084" lon="11.1789311"><ele>42.0</ele><time>2026-04-22T11:10:10.394Z</time></trkpt><trkpt lat="43.7601683" lon="11.1789775"><ele>42.0</ele><time>2026-04-22T11:10:13.681Z</time></trkpt><trkpt lat="43.7602413" lon="11.1790124"><ele>42.0</ele><time>2026-04-22T11:10:17.921Z</time></trkpt><trkpt lat="43.7603156" lon="11.1789841"><ele>42.0</ele><time>2026-04-22T11:10:23.401Z</time></trkpt><trkpt lat="43.760376" lon="11.1789463"><ele>42.0</ele><time>2026-04-22T11:10:28.401Z</time></trkpt><trkpt lat="43.7604345" lon="11.1789026"><ele>42.0</ele><time>2026-04-22T11:10:34.415Z</time></trkpt><trkpt lat="43.7604963" lon="11.1789305"><ele>42.0</ele><time>2026-04-22T11:10:44.415Z</time></trkpt><trkpt lat="43.7605892" lon="11.1790213"><ele>42.0</ele><time>2026-04-22T11:10:55.393Z</time></trkpt><trkpt lat="43.7606408" lon="11.1790843"><ele>42.0</ele><time>2026-04-22T11:10:58.32Z</time></trkpt><trkpt lat="43.7607079" lon="11.1791409"><ele>42.0</ele><time>2026-04-22T11:11:02.441Z</time></trkpt><trkpt lat="43.7607646" lon="11.179208"><ele>42.0</ele><time>2026-04-22T11:11:06.399Z</time></trkpt><trkpt lat="43.7607048" lon="11.1791736"><ele>42.0</ele><time>2026-04-22T11:11:25.393Z</time></trkpt><trkpt lat="43.7607171" lon="11.1790838"><ele>42.0</ele><time>2026-04-22T11:11:33.34Z</time></trkpt><trkpt lat="43.7607438" lon="11.1789885"><ele>42.0</ele><time>2026-04-22T11:11:38.436Z</time></trkpt><trkpt lat="43.760769" lon="11.1788959"><ele>42.0</ele><time>2026-04-22T11:11:44.414Z</time></trkpt><trkpt lat="43.7607552" lon="11.1788105"><ele>42.0</ele><time>2026-04-22T11:11:47.354Z</time></trkpt><trkpt lat="43.7607725" lon="11.1787043"><ele>42.0</ele><time>2026-04-22T11:11:51.371Z</time></trkpt><trkpt lat="43.7607945" lon="11.1786224"><ele>42.0</ele><time>2026-04-22T11:11:54.415Z</time></trkpt><trkpt lat="43.7608332" lon="11.178525"><ele>42.0</ele><time>2026-04-22T11:11:58.436Z</time></trkpt><trkpt lat="43.7608706" lon="11.1784251"><ele>42.0</ele><time>2026-04-22T11:12:01.371Z</time></trkpt><trkpt lat="43.7608919" lon="11.1783322"><ele>42.0</ele><time>2026-04-22T11:12:04.415Z</time></trkpt><trkpt lat="43.7609097" lon="11.1782421"><ele>42.0</ele><time>2026-04-22T11:12:09.298Z</time></trkpt><trkpt lat="43.7609306" lon="11.1781443"><ele>42.0</ele><time>2026-04-22T11:12:15.394Z</time></trkpt><trkpt lat="43.7609599" lon="11.1780581"><ele>42.0</ele><time>2026-04-22T11:12:19.415Z</time></trkpt><trkpt lat="43.7609852" lon="11.1779778"><ele>42.0</ele><time>2026-04-22T11:12:22.459Z</time></trkpt><trkpt lat="43.7610206" lon="11.1778865"><ele>42.0</ele><time>2026-04-22T11:12:25.393Z</time></trkpt><trkpt lat="43.7610694" lon="11.1777906"><ele>42.0</ele><time>2026-04-22T11:12:28.354Z</time></trkpt><trkpt lat="43.7611076" lon="11.1777212"><ele>42.0</ele><time>2026-04-22T11:12:31.372Z</time></trkpt><trkpt lat="43.7611789" lon="11.1776941"><ele>42.0</ele><time>2026-04-22T11:12:37.459Z</time></trkpt><trkpt lat="43.7611948" lon="11.1775985"><ele>42.0</ele><time>2026-04-22T11:12:46.372Z</time></trkpt><trkpt lat="43.7612026" lon="11.1775041"><ele>42.0</ele><time>2026-04-22T11:12:51.372Z</time></trkpt><trkpt lat="43.7612238" lon="11.1774181"><ele>42.142857142857146</ele><time>2026-04-22T11:12:55.394Z</time></trkpt><trkpt lat="43.761224" lon="11.1773285"><ele>42.285714285714285</ele><time>2026-04-22T11:13:00.394Z</time></trkpt><trkpt lat="43.7612504" lon="11.1772463"><ele>42.42857142857143</ele><time>2026-04-22T11:13:08.353Z</time></trkpt><trkpt lat="43.7612877" lon="11.1771489"><ele>42.57142857142857</ele><time>2026-04-22T11:13:12.353Z</time></trkpt><trkpt lat="43.7613178" lon="11.1770704"><ele>42.714285714285715</ele><time>2026-04-22T11:13:15.395Z</time></trkpt><trkpt lat="43.7613579" lon="11.1769828"><ele>42.85714285714286</ele><time>2026-04-22T11:13:18.353Z</time></trkpt><trkpt lat="43.7613901" lon="11.1769029"><ele>43.0</ele><time>2026-04-22T11:13:21.372Z</time></trkpt><trkpt lat="43.7614277" lon="11.1768181"><ele>43.00000000000001</ele><time>2026-04-22T11:13:25.394Z</time></trkpt><trkpt lat="43.7614772" lon="11.1767446"><ele>43.0</ele><time>2026-04-22T11:13:33.353Z</time></trkpt><trkpt lat="43.7614999" lon="11.1766573"><ele>43.0</ele><time>2026-04-22T11:13:38.437Z</time></trkpt><trkpt lat="43.7615339" lon="11.1765705"><ele>43.0</ele><time>2026-04-22T11:13:42.353Z</time></trkpt><trkpt lat="43.7615708" lon="11.1764824"><ele>43.0</ele><time>2026-04-22T11:13:46.372Z</time></trkpt><trkpt lat="43.7616016" lon="11.1764046"><ele>43.00000000000001</ele><time>2026-04-22T11:13:50.394Z</time></trkpt><trkpt lat="43.7616458" lon="11.1763344"><ele>43.0</ele><time>2026-04-22T11:13:56.438Z</time></trkpt><trkpt lat="43.7616746" lon="11.1762429"><ele>43.142857142857146</ele><time>2026-04-22T11:14:01.372Z</time></trkpt><trkpt lat="43.7617078" lon="11.1761558"><ele>43.285714285714285</ele><time>2026-04-22T11:14:05.393Z</time></trkpt><trkpt lat="43.7617398" lon="11.1760753"><ele>43.42857142857143</ele><time>2026-04-22T11:14:08.437Z</time></trkpt><trkpt lat="43.7617884" lon="11.1759847"><ele>43.57142857142857</ele><time>2026-04-22T11:14:12.353Z</time></trkpt><trkpt lat="43.7618221" lon="11.1759028"><ele>43.714285714285715</ele><time>2026-04-22T11:14:16.372Z</time></trkpt><trkpt lat="43.7618517" lon="11.1758153"><ele>43.85714285714286</ele><time>2026-04-22T11:14:24.279Z</time></trkpt><trkpt lat="43.7618819" lon="11.1757211"><ele>44.0</ele><time>2026-04-22T11:14:31.372Z</time></trkpt><trkpt lat="43.7619226" lon="11.1756344"><ele>44.142857142857146</ele><time>2026-04-22T11:14:35.393Z</time></trkpt><trkpt lat="43.7619599" lon="11.1755476"><ele>44.285714285714285</ele><time>2026-04-22T11:14:40.393Z</time></trkpt><trkpt lat="43.7619992" lon="11.1754604"><ele>44.42857142857143</ele><time>2026-04-22T11:14:46.372Z</time></trkpt><trkpt lat="43.7620306" lon="11.1753819"><ele>44.57142857142857</ele><time>2026-04-22T11:14:50.395Z</time></trkpt><trkpt lat="43.7620477" lon="11.1752877"><ele>44.714285714285715</ele><time>2026-04-22T11:14:54.415Z</time></trkpt><trkpt lat="43.7620996" lon="11.175211"><ele>44.857142857142854</ele><time>2026-04-22T11:14:58.437Z</time></trkpt><trkpt lat="43.7621351" lon="11.1751291"><ele>45.0</ele><time>2026-04-22T11:15:02.298Z</time></trkpt><trkpt lat="43.7622018" lon="11.1751059"><ele>45.0</ele><time>2026-04-22T11:15:07.459Z</time></trkpt><trkpt lat="43.762272" lon="11.1751051"><ele>45.0</ele><time>2026-04-22T11:15:12.459Z</time></trkpt><trkpt lat="43.7623548" lon="11.1751523"><ele>45.0</ele><time>2026-04-22T11:15:17.219Z</time></trkpt><trkpt lat="43.7624206" lon="11.1752098"><ele>45.0</ele><time>2026-04-22T11:15:21.458Z</time></trkpt><trkpt lat="43.7624794" lon="11.1752651"><ele>45.0</ele><time>2026-04-22T11:15:26.372Z</time></trkpt><trkpt lat="43.7625362" lon="11.1753131"><ele>45.0</ele><time>2026-04-22T11:15:31.48Z</time></trkpt><trkpt lat="43.7626012" lon="11.1753576"><ele>45.0</ele><time>2026-04-22T11:15:37.352Z</time></trkpt><trkpt lat="43.7626607" lon="11.1754092"><ele>44.42857142857142</ele><time>2026-04-22T11:15:42.457Z</time></trkpt><trkpt lat="43.762735" lon="11.1754424"><ele>43.85714285714286</ele><time>2026-04-22T11:15:47.456Z</time></trkpt><trkpt lat="43.7627931" lon="11.1754808"><ele>43.285714285714285</ele><time>2026-04-22T11:15:51.477Z</time></trkpt><trkpt lat="43.7628676" lon="11.1755173"><ele>42.71428571428571</ele><time>2026-04-22T11:15:56.368Z</time></trkpt><trkpt lat="43.7629309" lon="11.1755579"><ele>42.14285714285714</ele><time>2026-04-22T11:16:00.389Z</time></trkpt><trkpt lat="43.7629871" lon="11.1756003"><ele>41.57142857142857</ele><time>2026-04-22T11:16:05.388Z</time></trkpt><trkpt lat="43.7630529" lon="11.1756204"><ele>41.0</ele><time>2026-04-22T11:16:12.452Z</time></trkpt><trkpt lat="43.7630979" lon="11.1756823"><ele>41.14285714285714</ele><time>2026-04-22T11:16:16.473Z</time></trkpt><trkpt lat="43.7631625" lon="11.1757161"><ele>41.285714285714285</ele><time>2026-04-22T11:16:20.386Z</time></trkpt><trkpt lat="43.7632237" lon="11.1757599"><ele>41.42857142857143</ele><time>2026-04-22T11:16:24.407Z</time></trkpt><trkpt lat="43.7632868" lon="11.1758024"><ele>41.57142857142857</ele><time>2026-04-22T11:16:28.429Z</time></trkpt><trkpt lat="43.7633468" lon="11.1758538"><ele>41.714285714285715</ele><time>2026-04-22T11:16:33.427Z</time></trkpt><trkpt lat="43.7634212" lon="11.1758972"><ele>41.857142857142854</ele><time>2026-04-22T11:16:38.426Z</time></trkpt><trkpt lat="43.7634917" lon="11.1759418"><ele>42.0</ele><time>2026-04-22T11:16:42.448Z</time></trkpt><trkpt lat="43.7635558" lon="11.1759722"><ele>42.0</ele><time>2026-04-22T11:16:46.468Z</time></trkpt><trkpt lat="43.7636064" lon="11.1760345"><ele>42.0</ele><time>2026-04-22T11:16:53.424Z</time></trkpt><trkpt lat="43.7636857" lon="11.1760485"><ele>42.0</ele><time>2026-04-22T11:16:58.422Z</time></trkpt><trkpt lat="43.7637539" lon="11.1760782"><ele>42.0</ele><time>2026-04-22T11:17:03.421Z</time></trkpt><trkpt lat="43.7638159" lon="11.176099"><ele>42.0</ele><time>2026-04-22T11:17:10.378Z</time></trkpt><trkpt lat="43.7638795" lon="11.1760592"><ele>42.0</ele><time>2026-04-22T11:17:16.462Z</time></trkpt><trkpt lat="43.7639115" lon="11.1759608"><ele>42.0</ele><time>2026-04-22T11:17:19.397Z</time></trkpt><trkpt lat="43.7639121" lon="11.1758618"><ele>42.0</ele><time>2026-04-22T11:17:22.441Z</time></trkpt><trkpt lat="43.7639132" lon="11.175761"><ele>42.0</ele><time>2026-04-22T11:17:25.374Z</time></trkpt><trkpt lat="43.7639098" lon="11.1756325"><ele>42.0</ele><time>2026-04-22T11:17:29.395Z</time></trkpt><trkpt lat="43.763913" lon="11.1755335"><ele>42.0</ele><time>2026-04-22T11:17:33.417Z</time></trkpt><trkpt lat="43.7639147" lon="11.1754252"><ele>42.0</ele><time>2026-04-22T11:17:40.372Z</time></trkpt><trkpt lat="43.7639128" lon="11.1753179"><ele>42.0</ele><time>2026-04-22T11:17:43.398Z</time></trkpt><trkpt lat="43.7638975" lon="11.1752139"><ele>41.857142857142854</ele><time>2026-04-22T11:17:47.352Z</time></trkpt><trkpt lat="43.7638481" lon="11.1751456"><ele>41.714285714285715</ele><time>2026-04-22T11:17:51.352Z</time></trkpt><trkpt lat="43.763832" lon="11.1750613"><ele>41.57142857142857</ele><time>2026-04-22T11:17:55.318Z</time></trkpt><trkpt lat="43.7638498" lon="11.1749773"><ele>41.42857142857143</ele><time>2026-04-22T11:18:00.37Z</time></trkpt><trkpt lat="43.7638527" lon="11.1748738"><ele>41.285714285714285</ele><time>2026-04-22T11:18:06.352Z</time></trkpt><trkpt lat="43.7638459" lon="11.1747705"><ele>41.14285714285714</ele><time>2026-04-22T11:18:12.437Z</time></trkpt><trkpt lat="43.7638452" lon="11.1746784"><ele>41.0</ele><time>2026-04-22T11:18:16.321Z</time></trkpt><trkpt lat="43.7638516" lon="11.1745889"><ele>40.99999999999999</ele><time>2026-04-22T11:18:20.479Z</time></trkpt><trkpt lat="43.7638661" lon="11.1745019"><ele>41.0</ele><time>2026-04-22T11:18:24.957Z</time></trkpt><trkpt lat="43.7638736" lon="11.1743997"><ele>41.0</ele><time>2026-04-22T11:18:29.161Z</time></trkpt><trkpt lat="43.7638799" lon="11.1743111"><ele>41.0</ele><time>2026-04-22T11:18:34.438Z</time></trkpt><trkpt lat="43.7638872" lon="11.1741907"><ele>41.0</ele><time>2026-04-22T11:18:39.391Z</time></trkpt><trkpt lat="43.7638956" lon="11.1741019"><ele>40.99999999999999</ele><time>2026-04-22T11:18:42.881Z</time></trkpt><trkpt lat="43.763912" lon="11.1739756"><ele>41.0</ele><time>2026-04-22T11:18:46.977Z</time></trkpt><trkpt lat="43.7639191" lon="11.173866"><ele>40.83333333333333</ele><time>2026-04-22T11:18:51.151Z</time></trkpt><trkpt lat="43.7639345" lon="11.1737798"><ele>40.666666666666664</ele><time>2026-04-22T11:18:55.381Z</time></trkpt><trkpt lat="43.763965" lon="11.1736648"><ele>40.5</ele><time>2026-04-22T11:19:00.37Z</time></trkpt><trkpt lat="43.764003" lon="11.1735756"><ele>40.333333333333336</ele><time>2026-04-22T11:19:02.435Z</time></trkpt><trkpt lat="43.7640271" lon="11.1734774"><ele>40.16666666666667</ele><time>2026-04-22T11:19:05.337Z</time></trkpt><trkpt lat="43.7640378" lon="11.1733642"><ele>40.0</ele><time>2026-04-22T11:19:08.413Z</time></trkpt><trkpt lat="43.7640605" lon="11.1732507"><ele>40.14285714285714</ele><time>2026-04-22T11:19:11.352Z</time></trkpt><trkpt lat="43.7640703" lon="11.1731545"><ele>40.285714285714285</ele><time>2026-04-22T11:19:14.391Z</time></trkpt><trkpt lat="43.7641177" lon="11.1730835"><ele>40.42857142857143</ele><time>2026-04-22T11:19:20.298Z</time></trkpt><trkpt lat="43.7641342" lon="11.1729991"><ele>40.57142857142857</ele><time>2026-04-22T11:19:25.37Z</time></trkpt><trkpt lat="43.7641331" lon="11.1729052"><ele>40.714285714285715</ele><time>2026-04-22T11:19:29.391Z</time></trkpt><trkpt lat="43.7641463" lon="11.1728123"><ele>40.857142857142854</ele><time>2026-04-22T11:19:33.414Z</time></trkpt><trkpt lat="43.7641739" lon="11.172722"><ele>41.0</ele><time>2026-04-22T11:19:38.413Z</time></trkpt><trkpt lat="43.7642277" lon="11.1726679"><ele>40.99999999999999</ele><time>2026-04-22T11:19:44.361Z</time></trkpt><trkpt lat="43.7642459" lon="11.1725672"><ele>41.0</ele><time>2026-04-22T11:19:48.413Z</time></trkpt><trkpt lat="43.7642845" lon="11.1724876"><ele>41.0</ele><time>2026-04-22T11:19:52.435Z</time></trkpt><trkpt lat="43.7643275" lon="11.1724226"><ele>41.0</ele><time>2026-04-22T11:19:56.353Z</time></trkpt><trkpt lat="43.7643862" lon="11.1723558"><ele>41.0</ele><time>2026-04-22T11:20:01.381Z</time></trkpt><trkpt lat="43.7644385" lon="11.1722928"><ele>40.99999999999999</ele><time>2026-04-22T11:20:06.352Z</time></trkpt><trkpt lat="43.764472" lon="11.1722038"><ele>41.0</ele><time>2026-04-22T11:20:11.352Z</time></trkpt><trkpt lat="43.7645126" lon="11.172117"><ele>41.14285714285714</ele><time>2026-04-22T11:20:16.352Z</time></trkpt><trkpt lat="43.7645649" lon="11.172046"><ele>41.285714285714285</ele><time>2026-04-22T11:20:23.414Z</time></trkpt><trkpt lat="43.764602" lon="11.1719524"><ele>41.42857142857143</ele><time>2026-04-22T11:20:29.399Z</time></trkpt><trkpt lat="43.7646426" lon="11.1718825"><ele>41.57142857142857</ele><time>2026-04-22T11:20:34.392Z</time></trkpt><trkpt lat="43.7646832" lon="11.1718013"><ele>41.714285714285715</ele><time>2026-04-22T11:20:38.414Z</time></trkpt><trkpt lat="43.7647241" lon="11.1717235"><ele>41.857142857142854</ele><time>2026-04-22T11:20:41.353Z</time></trkpt><trkpt lat="43.7647712" lon="11.1716314"><ele>42.0</ele><time>2026-04-22T11:20:45.371Z</time></trkpt><trkpt lat="43.7648117" lon="11.171551"><ele>41.857142857142854</ele><time>2026-04-22T11:20:50.318Z</time></trkpt><trkpt lat="43.7648478" lon="11.171474"><ele>41.714285714285715</ele><time>2026-04-22T11:20:57.352Z</time></trkpt><trkpt lat="43.7648864" lon="11.1713893"><ele>41.57142857142857</ele><time>2026-04-22T11:21:01.352Z</time></trkpt><trkpt lat="43.7649259" lon="11.1712957"><ele>41.42857142857143</ele><time>2026-04-22T11:21:05.371Z</time></trkpt><trkpt lat="43.7649593" lon="11.1712195"><ele>41.285714285714285</ele><time>2026-04-22T11:21:09.38Z</time></trkpt><trkpt lat="43.7649944" lon="11.1711419"><ele>41.14285714285714</ele><time>2026-04-22T11:21:15.371Z</time></trkpt><trkpt lat="43.7650289" lon="11.1710608"><ele>41.0</ele><time>2026-04-22T11:21:19.394Z</time></trkpt><trkpt lat="43.7650692" lon="11.1709775"><ele>40.99999999999999</ele><time>2026-04-22T11:21:24.393Z</time></trkpt><trkpt lat="43.7651103" lon="11.1708935"><ele>41.0</ele><time>2026-04-22T11:21:30.371Z</time></trkpt><trkpt lat="43.7651679" lon="11.1708462"><ele>41.0</ele><time>2026-04-22T11:21:36.458Z</time></trkpt><trkpt lat="43.7651568" lon="11.1709427"><ele>41.0</ele><time>2026-04-22T11:21:44.393Z</time></trkpt><trkpt lat="43.7651389" lon="11.1710395"><ele>41.0</ele><time>2026-04-22T11:21:48.415Z</time></trkpt><trkpt lat="43.7651252" lon="11.1711281"><ele>40.99999999999999</ele><time>2026-04-22T11:21:53.415Z</time></trkpt><trkpt lat="43.7651071" lon="11.1712177"><ele>41.0</ele><time>2026-04-22T11:21:59.394Z</time></trkpt><trkpt lat="43.7650921" lon="11.1713067"><ele>40.99999999999999</ele><time>2026-04-22T11:22:03.416Z</time></trkpt><trkpt lat="43.7650743" lon="11.1713934"><ele>41.0</ele><time>2026-04-22T11:22:08.378Z</time></trkpt><trkpt lat="43.7650678" lon="11.1714818"><ele>41.0</ele><time>2026-04-22T11:22:15.373Z</time></trkpt><trkpt lat="43.7650446" lon="11.1715676"><ele>41.0</ele><time>2026-04-22T11:22:21.351Z</time></trkpt><trkpt lat="43.7650272" lon="11.1716517"><ele>41.0</ele><time>2026-04-22T11:22:25.373Z</time></trkpt><trkpt lat="43.7650117" lon="11.1717411"><ele>40.99999999999999</ele><time>2026-04-22T11:22:29.395Z</time></trkpt><trkpt lat="43.7649976" lon="11.1718318"><ele>41.0</ele><time>2026-04-22T11:22:33.362Z</time></trkpt><trkpt lat="43.7649727" lon="11.1719313"><ele>41.166666666666664</ele><time>2026-04-22T11:22:37.541Z</time></trkpt><trkpt lat="43.7649545" lon="11.172058"><ele>41.33333333333333</ele><time>2026-04-22T11:22:42.841Z</time></trkpt><trkpt lat="43.7649397" lon="11.1721652"><ele>41.5</ele><time>2026-04-22T11:22:47.081Z</time></trkpt><trkpt lat="43.7649106" lon="11.1722539"><ele>41.666666666666664</ele><time>2026-04-22T11:22:55.374Z</time></trkpt><trkpt lat="43.7648978" lon="11.1723448"><ele>41.833333333333336</ele><time>2026-04-22T11:23:01.354Z</time></trkpt><trkpt lat="43.7648828" lon="11.1724387"><ele>42.0</ele><time>2026-04-22T11:23:05.375Z</time></trkpt><trkpt lat="43.7648661" lon="11.172539"><ele>42.142857142857146</ele><time>2026-04-22T11:23:09.396Z</time></trkpt><trkpt lat="43.7648465" lon="11.1726356"><ele>42.285714285714285</ele><time>2026-04-22T11:23:14.439Z</time></trkpt><trkpt lat="43.7648294" lon="11.1727203"><ele>42.42857142857143</ele><time>2026-04-22T11:23:19.397Z</time></trkpt><trkpt lat="43.7648163" lon="11.1728078"><ele>42.57142857142857</ele><time>2026-04-22T11:23:22.351Z</time></trkpt><trkpt lat="43.7647992" lon="11.1729016"><ele>42.714285714285715</ele><time>2026-04-22T11:23:26.353Z</time></trkpt><trkpt lat="43.7647897" lon="11.1729925"><ele>42.85714285714286</ele><time>2026-04-22T11:23:32.351Z</time></trkpt><trkpt lat="43.7647697" lon="11.1731013"><ele>43.0</ele><time>2026-04-22T11:23:39.397Z</time></trkpt><trkpt lat="43.7647486" lon="11.1732095"><ele>43.00000000000001</ele><time>2026-04-22T11:23:43.419Z</time></trkpt><trkpt lat="43.7647289" lon="11.1733023"><ele>43.0</ele><time>2026-04-22T11:23:47.34Z</time></trkpt><trkpt lat="43.7647162" lon="11.1733922"><ele>43.0</ele><time>2026-04-22T11:23:52.441Z</time></trkpt><trkpt lat="43.7646997" lon="11.1734941"><ele>43.0</ele><time>2026-04-22T11:23:57.441Z</time></trkpt><trkpt lat="43.7646786" lon="11.1735857"><ele>43.0</ele><time>2026-04-22T11:24:01.354Z</time></trkpt><trkpt lat="43.7646636" lon="11.1736727"><ele>43.00000000000001</ele><time>2026-04-22T11:24:07.351Z</time></trkpt><trkpt lat="43.7646493" lon="11.1737603"><ele>43.0</ele><time>2026-04-22T11:24:15.378Z</time></trkpt><trkpt lat="43.7646373" lon="11.1738502"><ele>43.00000000000001</ele><time>2026-04-22T11:24:20.378Z</time></trkpt><trkpt lat="43.7646184" lon="11.173942"><ele>43.0</ele><time>2026-04-22T11:24:25.377Z</time></trkpt><trkpt lat="43.7646014" lon="11.1740283"><ele>43.0</ele><time>2026-04-22T11:24:29.399Z</time></trkpt><trkpt lat="43.7645847" lon="11.1741186"><ele>43.0</ele><time>2026-04-22T11:24:32.351Z</time></trkpt><trkpt lat="43.7645668" lon="11.1742203"><ele>43.0</ele><time>2026-04-22T11:24:36.356Z</time></trkpt><trkpt lat="43.7645506" lon="11.1743079"><ele>43.00000000000001</ele><time>2026-04-22T11:24:41.356Z</time></trkpt><trkpt lat="43.7645328" lon="11.1743956"><ele>43.0</ele><time>2026-04-22T11:24:47.351Z</time></trkpt><trkpt lat="43.7645157" lon="11.1745116"><ele>43.142857142857146</ele><time>2026-04-22T11:24:52.959Z</time></trkpt><trkpt lat="43.764502" lon="11.1746051"><ele>43.285714285714285</ele><time>2026-04-22T11:24:57.178Z</time></trkpt><trkpt lat="43.7644901" lon="11.1746907"><ele>43.42857142857143</ele><time>2026-04-22T11:25:02.341Z</time></trkpt><trkpt lat="43.7644762" lon="11.1747993"><ele>43.57142857142857</ele><time>2026-04-22T11:25:07.597Z</time></trkpt><trkpt lat="43.7644664" lon="11.1749078"><ele>43.714285714285715</ele><time>2026-04-22T11:25:11.798Z</time></trkpt><trkpt lat="43.7644581" lon="11.1750219"><ele>43.85714285714286</ele><time>2026-04-22T11:25:15.977Z</time></trkpt><trkpt lat="43.7644524" lon="11.1751155"><ele>44.0</ele><time>2026-04-22T11:25:20.157Z</time></trkpt><trkpt lat="43.7644469" lon="11.175213"><ele>44.0</ele><time>2026-04-22T11:25:28.359Z</time></trkpt><trkpt lat="43.7644473" lon="11.1753181"><ele>44.0</ele><time>2026-04-22T11:25:33.42Z</time></trkpt><trkpt lat="43.7644487" lon="11.1754221"><ele>44.0</ele><time>2026-04-22T11:25:37.439Z</time></trkpt><trkpt lat="43.7644484" lon="11.1755126"><ele>44.0</ele><time>2026-04-22T11:25:40.377Z</time></trkpt><trkpt lat="43.76444" lon="11.1756121"><ele>44.0</ele><time>2026-04-22T11:25:43.42Z</time></trkpt><trkpt lat="43.7644301" lon="11.175712"><ele>44.0</ele><time>2026-04-22T11:25:48.42Z</time></trkpt><trkpt lat="43.7644044" lon="11.1758108"><ele>44.0</ele><time>2026-04-22T11:25:55.376Z</time></trkpt><trkpt lat="43.7643677" lon="11.1759136"><ele>43.714285714285715</ele><time>2026-04-22T11:25:59.398Z</time></trkpt><trkpt lat="43.7643347" lon="11.1760016"><ele>43.42857142857143</ele><time>2026-04-22T11:26:02.443Z</time></trkpt><trkpt lat="43.7642671" lon="11.1760085"><ele>43.14285714285714</ele><time>2026-04-22T11:26:07.596Z</time></trkpt><trkpt lat="43.7642043" lon="11.1759725"><ele>42.85714285714286</ele><time>2026-04-22T11:26:11.979Z</time></trkpt><trkpt lat="43.76414" lon="11.17597"><ele>42.57142857142857</ele><time>2026-04-22T11:26:18.397Z</time></trkpt><trkpt lat="43.7640651" lon="11.1759832"><ele>42.285714285714285</ele><time>2026-04-22T11:26:24.397Z</time></trkpt><trkpt lat="43.7640017" lon="11.1760026"><ele>42.0</ele><time>2026-04-22T11:26:29.397Z</time></trkpt><trkpt lat="43.7639221" lon="11.1759905"><ele>42.0</ele><time>2026-04-22T11:26:34.397Z</time></trkpt><trkpt lat="43.763855" lon="11.1759678"><ele>42.0</ele><time>2026-04-22T11:26:38.419Z</time></trkpt><trkpt lat="43.7638074" lon="11.176045"><ele>42.0</ele><time>2026-04-22T11:26:59.396Z</time></trkpt><trkpt lat="43.7637794" lon="11.1761258"><ele>42.0</ele><time>2026-04-22T11:27:04.397Z</time></trkpt><trkpt lat="43.7637571" lon="11.176224"><ele>42.0</ele><time>2026-04-22T11:27:10.374Z</time></trkpt><trkpt lat="43.7637499" lon="11.1763306"><ele>42.0</ele><time>2026-04-22T11:27:15.375Z</time></trkpt><trkpt lat="43.7637541" lon="11.1764284"><ele>42.0</ele><time>2026-04-22T11:27:19.396Z</time></trkpt><trkpt lat="43.7637718" lon="11.176528"><ele>42.0</ele><time>2026-04-22T11:27:23.418Z</time></trkpt><trkpt lat="43.76379" lon="11.1766408"><ele>42.0</ele><time>2026-04-22T11:27:28.419Z</time></trkpt><trkpt lat="43.7637891" lon="11.176544"><ele>42.0</ele><time>2026-04-22T11:27:58.419Z</time></trkpt><trkpt lat="43.7638325" lon="11.1764627"><ele>42.0</ele><time>2026-04-22T11:28:05.375Z</time></trkpt><trkpt lat="43.7638809" lon="11.1763983"><ele>42.0</ele><time>2026-04-22T11:28:09.397Z</time></trkpt><trkpt lat="43.7639174" lon="11.1763137"><ele>42.0</ele><time>2026-04-22T11:28:14.397Z</time></trkpt><trkpt lat="43.7639557" lon="11.1762412"><ele>42.0</ele><time>2026-04-22T11:28:18.419Z</time></trkpt><trkpt lat="43.7640013" lon="11.1761755"><ele>42.0</ele><time>2026-04-22T11:28:23.338Z</time></trkpt><trkpt lat="43.7640678" lon="11.1761817"><ele>42.0</ele><time>2026-04-22T11:28:27.35Z</time></trkpt><trkpt lat="43.7641396" lon="11.1761837"><ele>42.0</ele><time>2026-04-22T11:28:32.441Z</time></trkpt><trkpt lat="43.7642022" lon="11.1761604"><ele>42.0</ele><time>2026-04-22T11:28:37.35Z</time></trkpt><trkpt lat="43.7642704" lon="11.1761332"><ele>42.0</ele><time>2026-04-22T11:28:43.419Z</time></trkpt><trkpt lat="43.7643429" lon="11.1761265"><ele>42.0</ele><time>2026-04-22T11:28:48.419Z</time></trkpt><trkpt lat="43.7643671" lon="11.1760213"><ele>42.0</ele><time>2026-04-22T11:28:52.441Z</time></trkpt><trkpt lat="43.7643973" lon="11.1759341"><ele>41.857142857142854</ele><time>2026-04-22T11:28:58.278Z</time></trkpt><trkpt lat="43.764438" lon="11.1758525"><ele>41.714285714285715</ele><time>2026-04-22T11:29:02.35Z</time></trkpt><trkpt lat="43.7644808" lon="11.175767"><ele>41.57142857142857</ele><time>2026-04-22T11:29:06.297Z</time></trkpt><trkpt lat="43.7644918" lon="11.1756803"><ele>41.42857142857143</ele><time>2026-04-22T11:29:11.355Z</time></trkpt><trkpt lat="43.7644705" lon="11.1755936"><ele>41.285714285714285</ele><time>2026-04-22T11:29:15.371Z</time></trkpt><trkpt lat="43.7644697" lon="11.1755034"><ele>41.14285714285714</ele><time>2026-04-22T11:29:20.299Z</time></trkpt><trkpt lat="43.7644805" lon="11.1754063"><ele>41.0</ele><time>2026-04-22T11:29:26.297Z</time></trkpt><trkpt lat="43.7644706" lon="11.175299"><ele>41.42857142857142</ele><time>2026-04-22T11:29:32.35Z</time></trkpt><trkpt lat="43.7644514" lon="11.1751983"><ele>41.857142857142854</ele><time>2026-04-22T11:29:37.438Z</time></trkpt><trkpt lat="43.7644627" lon="11.1751036"><ele>42.285714285714285</ele><time>2026-04-22T11:29:44.392Z</time></trkpt><trkpt lat="43.7644748" lon="11.1750121"><ele>42.71428571428571</ele><time>2026-04-22T11:29:49.392Z</time></trkpt><trkpt lat="43.7644934" lon="11.1749125"><ele>43.14285714285714</ele><time>2026-04-22T11:29:54.392Z</time></trkpt><trkpt lat="43.7645266" lon="11.1748372"><ele>43.57142857142857</ele><time>2026-04-22T11:29:59.392Z</time></trkpt><trkpt lat="43.7645635" lon="11.174762"><ele>44.0</ele><time>2026-04-22T11:30:04.391Z</time></trkpt><trkpt lat="43.7645845" lon="11.174673"><ele>44.0</ele><time>2026-04-22T11:30:08.413Z</time></trkpt><trkpt lat="43.7646111" lon="11.1745885"><ele>44.0</ele><time>2026-04-22T11:30:14.391Z</time></trkpt><trkpt lat="43.764621" lon="11.1744978"><ele>44.0</ele><time>2026-04-22T11:30:20.369Z</time></trkpt><trkpt lat="43.7646342" lon="11.1744054"><ele>44.0</ele><time>2026-04-22T11:30:28.412Z</time></trkpt><trkpt lat="43.7646563" lon="11.1743154"><ele>44.0</ele><time>2026-04-22T11:30:33.412Z</time></trkpt><trkpt lat="43.7646722" lon="11.1742256"><ele>44.0</ele><time>2026-04-22T11:30:37.433Z</time></trkpt><trkpt lat="43.7646951" lon="11.1741315"><ele>44.0</ele><time>2026-04-22T11:30:42.433Z</time></trkpt><trkpt lat="43.7647066" lon="11.1740282"><ele>43.85714285714286</ele><time>2026-04-22T11:30:47.433Z</time></trkpt><trkpt lat="43.7647317" lon="11.1739304"><ele>43.714285714285715</ele><time>2026-04-22T11:30:52.301Z</time></trkpt><trkpt lat="43.764751" lon="11.1738293"><ele>43.57142857142857</ele><time>2026-04-22T11:30:59.389Z</time></trkpt><trkpt lat="43.7647716" lon="11.1737378"><ele>43.42857142857143</ele><time>2026-04-22T11:31:04.39Z</time></trkpt><trkpt lat="43.7647875" lon="11.1736373"><ele>43.285714285714285</ele><time>2026-04-22T11:31:09.389Z</time></trkpt><trkpt lat="43.7648002" lon="11.1735502"><ele>43.142857142857146</ele><time>2026-04-22T11:31:14.388Z</time></trkpt><trkpt lat="43.7648131" lon="11.1734516"><ele>43.0</ele><time>2026-04-22T11:31:20.366Z</time></trkpt><trkpt lat="43.764833" lon="11.1733569"><ele>43.00000000000001</ele><time>2026-04-22T11:31:26.35Z</time></trkpt><trkpt lat="43.7648661" lon="11.1732733"><ele>43.0</ele><time>2026-04-22T11:31:33.399Z</time></trkpt><trkpt lat="43.7648764" lon="11.1731702"><ele>43.0</ele><time>2026-04-22T11:31:38.399Z</time></trkpt><trkpt lat="43.7648794" lon="11.1730764"><ele>43.0</ele><time>2026-04-22T11:31:43.399Z</time></trkpt><trkpt lat="43.7648981" lon="11.1729762"><ele>43.0</ele><time>2026-04-22T11:31:47.421Z</time></trkpt><trkpt lat="43.7649166" lon="11.172885"><ele>43.00000000000001</ele><time>2026-04-22T11:31:51.35Z</time></trkpt><trkpt lat="43.7649364" lon="11.1728008"><ele>43.0</ele><time>2026-04-22T11:31:57.421Z</time></trkpt><trkpt lat="43.7649452" lon="11.1727107"><ele>43.00000000000001</ele><time>2026-04-22T11:32:01.42Z</time></trkpt><trkpt lat="43.7649641" lon="11.1726185"><ele>43.0</ele><time>2026-04-22T11:32:06.443Z</time></trkpt><trkpt lat="43.7649835" lon="11.1725179"><ele>43.0</ele><time>2026-04-22T11:32:11.443Z</time></trkpt><trkpt lat="43.764997" lon="11.1724239"><ele>43.0</ele><time>2026-04-22T11:32:16.442Z</time></trkpt><trkpt lat="43.7650209" lon="11.1723296"><ele>43.0</ele><time>2026-04-22T11:32:21.35Z</time></trkpt><trkpt lat="43.7650342" lon="11.1722369"><ele>43.00000000000001</ele><time>2026-04-22T11:32:28.461Z</time></trkpt><trkpt lat="43.7650519" lon="11.1721347"><ele>43.0</ele><time>2026-04-22T11:32:35.355Z</time></trkpt><trkpt lat="43.7650703" lon="11.1720506"><ele>42.85714285714286</ele><time>2026-04-22T11:32:40.355Z</time></trkpt><trkpt lat="43.7650836" lon="11.1719607"><ele>42.714285714285715</ele><time>2026-04-22T11:32:46.333Z</time></trkpt><trkpt lat="43.7651023" lon="11.1718645"><ele>42.57142857142857</ele><time>2026-04-22T11:32:52.444Z</time></trkpt><trkpt lat="43.7651258" lon="11.1717772"><ele>42.42857142857143</ele><time>2026-04-22T11:32:58.398Z</time></trkpt><trkpt lat="43.7651384" lon="11.1716874"><ele>42.285714285714285</ele><time>2026-04-22T11:33:04.319Z</time></trkpt><trkpt lat="43.7651642" lon="11.1717672"><ele>42.142857142857146</ele><time>2026-04-22T11:33:24.379Z</time></trkpt><trkpt lat="43.7651399" lon="11.1718488"><ele>42.0</ele><time>2026-04-22T11:33:30.356Z</time></trkpt><trkpt lat="43.765104" lon="11.1719423"><ele>42.0</ele><time>2026-04-22T11:33:36.441Z</time></trkpt><trkpt lat="43.7650585" lon="11.1720231"><ele>42.0</ele><time>2026-04-22T11:33:41.258Z</time></trkpt><trkpt lat="43.7650385" lon="11.1721245"><ele>42.0</ele><time>2026-04-22T11:33:47.423Z</time></trkpt><trkpt lat="43.7650192" lon="11.1722194"><ele>42.0</ele><time>2026-04-22T11:33:53.401Z</time></trkpt><trkpt lat="43.7649952" lon="11.1723012"><ele>42.0</ele><time>2026-04-22T11:33:58.402Z</time></trkpt><trkpt lat="43.7649805" lon="11.1724034"><ele>42.0</ele><time>2026-04-22T11:34:03.403Z</time></trkpt><trkpt lat="43.7649637" lon="11.1725064"><ele>42.0</ele><time>2026-04-22T11:34:09.38Z</time></trkpt><trkpt lat="43.7649478" lon="11.1725997"><ele>42.142857142857146</ele><time>2026-04-22T11:34:14.406Z</time></trkpt><trkpt lat="43.76493" lon="11.1726905"><ele>42.285714285714285</ele><time>2026-04-22T11:34:19.379Z</time></trkpt><trkpt lat="43.7649087" lon="11.1727828"><ele>42.42857142857143</ele><time>2026-04-22T11:34:25.357Z</time></trkpt><trkpt lat="43.7648982" lon="11.1728761"><ele>42.57142857142857</ele><time>2026-04-22T11:34:31.441Z</time></trkpt><trkpt lat="43.7648552" lon="11.1729398"><ele>42.714285714285715</ele><time>2026-04-22T11:34:37.379Z</time></trkpt><trkpt lat="43.7648538" lon="11.1730332"><ele>42.85714285714286</ele><time>2026-04-22T11:34:43.439Z</time></trkpt><trkpt lat="43.7648459" lon="11.1731273"><ele>43.0</ele><time>2026-04-22T11:34:49.376Z</time></trkpt><trkpt lat="43.7648285" lon="11.1732244"><ele>43.00000000000001</ele><time>2026-04-22T11:34:54.376Z</time></trkpt><trkpt lat="43.7648106" lon="11.1733158"><ele>43.0</ele><time>2026-04-22T11:34:59.398Z</time></trkpt><trkpt lat="43.7647945" lon="11.1734077"><ele>43.0</ele><time>2026-04-22T11:35:04.375Z</time></trkpt><trkpt lat="43.7647783" lon="11.1735099"><ele>43.0</ele><time>2026-04-22T11:35:09.841Z</time></trkpt><trkpt lat="43.7647589" lon="11.1735949"><ele>43.0</ele><time>2026-04-22T11:35:15.46Z</time></trkpt><trkpt lat="43.7647467" lon="11.1736916"><ele>43.00000000000001</ele><time>2026-04-22T11:35:21.46Z</time></trkpt><trkpt lat="43.7647307" lon="11.1737862"><ele>43.0</ele><time>2026-04-22T11:35:28.393Z</time></trkpt><trkpt lat="43.7647099" lon="11.1738701"><ele>43.00000000000001</ele><time>2026-04-22T11:35:34.338Z</time></trkpt><trkpt lat="43.7646924" lon="11.1739692"><ele>43.0</ele><time>2026-04-22T11:35:42.412Z</time></trkpt><trkpt lat="43.7646729" lon="11.1740682"><ele>43.0</ele><time>2026-04-22T11:35:48.39Z</time></trkpt><trkpt lat="43.7646475" lon="11.1741657"><ele>43.0</ele><time>2026-04-22T11:35:53.361Z</time></trkpt><trkpt lat="43.7646374" lon="11.1742661"><ele>43.0</ele><time>2026-04-22T11:36:00.421Z</time></trkpt><trkpt lat="43.7646181" lon="11.1743536"><ele>43.00000000000001</ele><time>2026-04-22T11:36:06.43Z</time></trkpt><trkpt lat="43.7646024" lon="11.1744529"><ele>43.0</ele><time>2026-04-22T11:36:12.408Z</time></trkpt><trkpt lat="43.7645855" lon="11.1745525"><ele>43.142857142857146</ele><time>2026-04-22T11:36:18.385Z</time></trkpt><trkpt lat="43.7645701" lon="11.1746433"><ele>43.285714285714285</ele><time>2026-04-22T11:36:23.385Z</time></trkpt><trkpt lat="43.7645571" lon="11.1747323"><ele>43.42857142857143</ele><time>2026-04-22T11:36:27.405Z</time></trkpt><trkpt lat="43.7645506" lon="11.1748196"><ele>43.57142857142857</ele><time>2026-04-22T11:36:31.426Z</time></trkpt><trkpt lat="43.764538" lon="11.1749159"><ele>43.714285714285715</ele><time>2026-04-22T11:36:37.403Z</time></trkpt><trkpt lat="43.764528" lon="11.1750171"><ele>43.85714285714286</ele><time>2026-04-22T11:36:43.378Z</time></trkpt><trkpt lat="43.7645245" lon="11.1751187"><ele>44.0</ele><time>2026-04-22T11:36:49.465Z</time></trkpt><trkpt lat="43.7645252" lon="11.1752136"><ele>44.0</ele><time>2026-04-22T11:36:54.464Z</time></trkpt><trkpt lat="43.7645269" lon="11.1753173"><ele>44.0</ele><time>2026-04-22T11:36:59.463Z</time></trkpt><trkpt lat="43.7645274" lon="11.1754177"><ele>44.0</ele><time>2026-04-22T11:37:04.462Z</time></trkpt><trkpt lat="43.7645214" lon="11.1755169"><ele>44.0</ele><time>2026-04-22T11:37:11.34Z</time></trkpt><trkpt lat="43.7644875" lon="11.1756004"><ele>44.0</ele><time>2026-04-22T11:37:17.394Z</time></trkpt><trkpt lat="43.7644512" lon="11.1756758"><ele>44.0</ele><time>2026-04-22T11:37:26.408Z</time></trkpt><trkpt lat="43.7643798" lon="11.1756752"><ele>44.0</ele><time>2026-04-22T11:37:34.458Z</time></trkpt><trkpt lat="43.7643098" lon="11.1756508"><ele>43.57142857142857</ele><time>2026-04-22T11:37:47.339Z</time></trkpt><trkpt lat="43.7642413" lon="11.1756365"><ele>43.14285714285714</ele><time>2026-04-22T11:37:51.402Z</time></trkpt><trkpt lat="43.7641678" lon="11.1756144"><ele>42.71428571428571</ele><time>2026-04-22T11:37:54.349Z</time></trkpt><trkpt lat="43.7640953" lon="11.1755898"><ele>42.285714285714285</ele><time>2026-04-22T11:37:59.35Z</time></trkpt><trkpt lat="43.76402" lon="11.1755622"><ele>41.857142857142854</ele><time>2026-04-22T11:38:04.349Z</time></trkpt><trkpt lat="43.7639547" lon="11.1755511"><ele>41.42857142857142</ele><time>2026-04-22T11:38:08.358Z</time></trkpt><trkpt lat="43.7638852" lon="11.175564"><ele>41.0</ele><time>2026-04-22T11:38:12.44Z</time></trkpt><trkpt lat="43.7638313" lon="11.1756234"><ele>41.14285714285714</ele><time>2026-04-22T11:38:16.399Z</time></trkpt><trkpt lat="43.7637793" lon="11.1756904"><ele>41.285714285714285</ele><time>2026-04-22T11:38:20.359Z</time></trkpt><trkpt lat="43.7637556" lon="11.175776"><ele>41.42857142857143</ele><time>2026-04-22T11:38:24.302Z</time></trkpt><trkpt lat="43.7636944" lon="11.175806"><ele>41.57142857142857</ele><time>2026-04-22T11:38:30.42Z</time></trkpt><trkpt lat="43.7636319" lon="11.1758475"><ele>41.714285714285715</ele><time>2026-04-22T11:38:36.398Z</time></trkpt><trkpt lat="43.7635596" lon="11.1758312"><ele>41.857142857142854</ele><time>2026-04-22T11:38:43.4Z</time></trkpt><trkpt lat="43.7634947" lon="11.1757878"><ele>42.0</ele><time>2026-04-22T11:38:48.157Z</time></trkpt><trkpt lat="43.7634382" lon="11.1757397"><ele>42.142857142857146</ele><time>2026-04-22T11:38:53.353Z</time></trkpt><trkpt lat="43.7633804" lon="11.1757047"><ele>42.285714285714285</ele><time>2026-04-22T11:38:58.353Z</time></trkpt><trkpt lat="43.7633212" lon="11.1756583"><ele>42.42857142857143</ele><time>2026-04-22T11:39:02.375Z</time></trkpt><trkpt lat="43.7632514" lon="11.1756111"><ele>42.57142857142857</ele><time>2026-04-22T11:39:06.397Z</time></trkpt><trkpt lat="43.763192" lon="11.1755758"><ele>42.714285714285715</ele><time>2026-04-22T11:39:10.418Z</time></trkpt><trkpt lat="43.7631247" lon="11.1755262"><ele>42.85714285714286</ele><time>2026-04-22T11:39:15.419Z</time></trkpt><trkpt lat="43.7630581" lon="11.1754768"><ele>43.0</ele><time>2026-04-22T11:39:20.418Z</time></trkpt><trkpt lat="43.7630017" lon="11.1754352"><ele>42.714285714285715</ele><time>2026-04-22T11:39:25.281Z</time></trkpt><trkpt lat="43.7629393" lon="11.1753939"><ele>42.42857142857143</ele><time>2026-04-22T11:39:31.395Z</time></trkpt><trkpt lat="43.7628702" lon="11.1753487"><ele>42.14285714285714</ele><time>2026-04-22T11:39:36.395Z</time></trkpt><trkpt lat="43.7627947" lon="11.1753013"><ele>41.85714285714286</ele><time>2026-04-22T11:39:40.416Z</time></trkpt><trkpt lat="43.7627346" lon="11.1752636"><ele>41.57142857142857</ele><time>2026-04-22T11:39:44.257Z</time></trkpt><trkpt lat="43.7626795" lon="11.1752214"><ele>41.285714285714285</ele><time>2026-04-22T11:39:49.437Z</time></trkpt><trkpt lat="43.7626196" lon="11.1751731"><ele>41.0</ele><time>2026-04-22T11:39:55.415Z</time></trkpt><trkpt lat="43.7625571" lon="11.1751305"><ele>41.57142857142857</ele><time>2026-04-22T11:39:59.349Z</time></trkpt><trkpt lat="43.7624961" lon="11.1750878"><ele>42.14285714285714</ele><time>2026-04-22T11:40:03.317Z</time></trkpt><trkpt lat="43.7624386" lon="11.1750428"><ele>42.71428571428571</ele><time>2026-04-22T11:40:08.459Z</time></trkpt><trkpt lat="43.7623749" lon="11.1750011"><ele>43.285714285714285</ele><time>2026-04-22T11:40:13.079Z</time></trkpt><trkpt lat="43.7623118" lon="11.1749643"><ele>43.85714285714286</ele><time>2026-04-22T11:40:17.371Z</time></trkpt><trkpt lat="43.7622519" lon="11.1749935"><ele>44.42857142857142</ele><time>2026-04-22T11:40:23.35Z</time></trkpt><trkpt lat="43.7621861" lon="11.1749808"><ele>45.0</ele><time>2026-04-22T11:40:30.441Z</time></trkpt><trkpt lat="43.7621388" lon="11.1749141"><ele>45.0</ele><time>2026-04-22T11:40:36.393Z</time></trkpt><trkpt lat="43.7620694" lon="11.1749031"><ele>45.0</ele><time>2026-04-22T11:41:01.391Z</time></trkpt><trkpt lat="43.7620292" lon="11.1749807"><ele>45.0</ele><time>2026-04-22T11:41:06.418Z</time></trkpt><trkpt lat="43.7619986" lon="11.1750694"><ele>45.0</ele><time>2026-04-22T11:41:10.413Z</time></trkpt><trkpt lat="43.7619644" lon="11.1751584"><ele>45.0</ele><time>2026-04-22T11:41:14.35Z</time></trkpt><trkpt lat="43.7619306" lon="11.1752462"><ele>45.0</ele><time>2026-04-22T11:41:18.35Z</time></trkpt><trkpt lat="43.7619022" lon="11.1753278"><ele>45.0</ele><time>2026-04-22T11:41:22.369Z</time></trkpt><trkpt lat="43.7618752" lon="11.1754069"><ele>45.14285714285714</ele><time>2026-04-22T11:41:26.391Z</time></trkpt><trkpt lat="43.7618324" lon="11.1754949"><ele>45.28571428571429</ele><time>2026-04-22T11:41:31.392Z</time></trkpt><trkpt lat="43.7617978" lon="11.1755803"><ele>45.42857142857143</ele><time>2026-04-22T11:41:36.319Z</time></trkpt><trkpt lat="43.7617594" lon="11.1756662"><ele>45.57142857142857</ele><time>2026-04-22T11:41:42.369Z</time></trkpt><trkpt lat="43.7617147" lon="11.1757487"><ele>45.71428571428571</ele><time>2026-04-22T11:41:47.369Z</time></trkpt><trkpt lat="43.7616828" lon="11.1758255"><ele>45.85714285714286</ele><time>2026-04-22T11:41:51.391Z</time></trkpt><trkpt lat="43.7616523" lon="11.1759082"><ele>46.0</ele><time>2026-04-22T11:41:56.392Z</time></trkpt><trkpt lat="43.7616168" lon="11.1759937"><ele>45.714285714285715</ele><time>2026-04-22T11:42:03.359Z</time></trkpt><trkpt lat="43.7615819" lon="11.1760888"><ele>45.42857142857142</ele><time>2026-04-22T11:42:09.435Z</time></trkpt><trkpt lat="43.761547" lon="11.1761791"><ele>45.14285714285714</ele><time>2026-04-22T11:42:14.435Z</time></trkpt><trkpt lat="43.7615065" lon="11.1762841"><ele>44.85714285714286</ele><time>2026-04-22T11:42:19.348Z</time></trkpt><trkpt lat="43.7614739" lon="11.1763607"><ele>44.57142857142857</ele><time>2026-04-22T11:42:22.37Z</time></trkpt><trkpt lat="43.7614342" lon="11.1764519"><ele>44.285714285714285</ele><time>2026-04-22T11:42:26.391Z</time></trkpt><trkpt lat="43.7613941" lon="11.1765247"><ele>44.0</ele><time>2026-04-22T11:42:31.391Z</time></trkpt><trkpt lat="43.7613364" lon="11.1765711"><ele>44.0</ele><time>2026-04-22T11:42:37.37Z</time></trkpt><trkpt lat="43.7612807" lon="11.1765286"><ele>44.0</ele><time>2026-04-22T11:42:45.413Z</time></trkpt><trkpt lat="43.7612119" lon="11.1764559"><ele>44.0</ele><time>2026-04-22T11:42:50.413Z</time></trkpt><trkpt lat="43.7611477" lon="11.1763981"><ele>44.0</ele><time>2026-04-22T11:42:54.435Z</time></trkpt><trkpt lat="43.7610935" lon="11.1763441"><ele>44.0</ele><time>2026-04-22T11:42:59.435Z</time></trkpt><trkpt lat="43.7610354" lon="11.176285"><ele>44.0</ele><time>2026-04-22T11:43:04.98Z</time></trkpt><trkpt lat="43.7609752" lon="11.1762311"><ele>44.0</ele><time>2026-04-22T11:43:09.358Z</time></trkpt><trkpt lat="43.7609222" lon="11.1761801"><ele>43.85714285714286</ele><time>2026-04-22T11:43:13.379Z</time></trkpt><trkpt lat="43.7608586" lon="11.1761285"><ele>43.714285714285715</ele><time>2026-04-22T11:43:18.348Z</time></trkpt><trkpt lat="43.7607937" lon="11.1760714"><ele>43.57142857142857</ele><time>2026-04-22T11:43:23.36Z</time></trkpt><trkpt lat="43.7607306" lon="11.1760267"><ele>43.42857142857143</ele><time>2026-04-22T11:43:27.37Z</time></trkpt><trkpt lat="43.7606737" lon="11.1759813"><ele>43.285714285714285</ele><time>2026-04-22T11:43:31.399Z</time></trkpt><trkpt lat="43.7606142" lon="11.1759264"><ele>43.142857142857146</ele><time>2026-04-22T11:43:37.369Z</time></trkpt><trkpt lat="43.7605513" lon="11.1758793"><ele>43.0</ele><time>2026-04-22T11:43:42.356Z</time></trkpt><trkpt lat="43.7604922" lon="11.1758329"><ele>43.00000000000001</ele><time>2026-04-22T11:43:47.481Z</time></trkpt><trkpt lat="43.7604265" lon="11.1758309"><ele>43.0</ele><time>2026-04-22T11:43:54.434Z</time></trkpt><trkpt lat="43.7603755" lon="11.175918"><ele>43.0</ele><time>2026-04-22T11:43:59.434Z</time></trkpt><trkpt lat="43.7603227" lon="11.1759976"><ele>43.0</ele><time>2026-04-22T11:44:03.301Z</time></trkpt><trkpt lat="43.7602804" lon="11.1760641"><ele>43.0</ele><time>2026-04-22T11:44:07.369Z</time></trkpt><trkpt lat="43.7602368" lon="11.1761308"><ele>43.00000000000001</ele><time>2026-04-22T11:44:12.369Z</time></trkpt><trkpt lat="43.7601917" lon="11.1762073"><ele>43.0</ele><time>2026-04-22T11:44:17.375Z</time></trkpt><trkpt lat="43.7601427" lon="11.176266"><ele>42.85714285714286</ele><time>2026-04-22T11:44:22.403Z</time></trkpt><trkpt lat="43.7601177" lon="11.1763523"><ele>42.714285714285715</ele><time>2026-04-22T11:44:27.357Z</time></trkpt><trkpt lat="43.7600772" lon="11.1764389"><ele>42.57142857142857</ele><time>2026-04-22T11:44:32.375Z</time></trkpt><trkpt lat="43.7600347" lon="11.176507"><ele>42.42857142857143</ele><time>2026-04-22T11:44:36.397Z</time></trkpt><trkpt lat="43.760001" lon="11.1765906"><ele>42.285714285714285</ele><time>2026-04-22T11:44:39.44Z</time></trkpt><trkpt lat="43.7599826" lon="11.1766867"><ele>42.142857142857146</ele><time>2026-04-22T11:44:45.419Z</time></trkpt><trkpt lat="43.7600062" lon="11.1767732"><ele>42.0</ele><time>2026-04-22T11:44:56.397Z</time></trkpt><trkpt lat="43.7600636" lon="11.1768153"><ele>42.0</ele><time>2026-04-22T11:45:00.419Z</time></trkpt><trkpt lat="43.7601216" lon="11.1768609"><ele>42.0</ele><time>2026-04-22T11:45:03.341Z</time></trkpt><trkpt lat="43.7601786" lon="11.1769025"><ele>42.0</ele><time>2026-04-22T11:45:06.398Z</time></trkpt><trkpt lat="43.7602392" lon="11.1769402"><ele>42.0</ele><time>2026-04-22T11:45:09.348Z</time></trkpt><trkpt lat="43.760314" lon="11.1769842"><ele>42.0</ele><time>2026-04-22T11:45:13.354Z</time></trkpt><trkpt lat="43.7603719" lon="11.1770216"><ele>42.0</ele><time>2026-04-22T11:45:16.398Z</time></trkpt><trkpt lat="43.7604305" lon="11.1770716"><ele>42.0</ele><time>2026-04-22T11:45:20.419Z</time></trkpt><trkpt lat="43.7604972" lon="11.1771243"><ele>42.142857142857146</ele><time>2026-04-22T11:45:25.419Z</time></trkpt><trkpt lat="43.7605537" lon="11.1771641"><ele>42.285714285714285</ele><time>2026-04-22T11:45:30.357Z</time></trkpt><trkpt lat="43.7606091" lon="11.1772087"><ele>42.42857142857143</ele><time>2026-04-22T11:45:34.348Z</time></trkpt><trkpt lat="43.7606751" lon="11.1772595"><ele>42.57142857142857</ele><time>2026-04-22T11:45:38.354Z</time></trkpt><trkpt lat="43.7607375" lon="11.1773108"><ele>42.714285714285715</ele><time>2026-04-22T11:45:41.398Z</time></trkpt><trkpt lat="43.7607976" lon="11.177357"><ele>42.85714285714286</ele><time>2026-04-22T11:45:46.04Z</time></trkpt><trkpt lat="43.7608531" lon="11.1774169"><ele>43.0</ele><time>2026-04-22T11:45:51.398Z</time></trkpt><trkpt lat="43.760923" lon="11.1774599"><ele>43.00000000000001</ele><time>2026-04-22T11:45:56.398Z</time></trkpt><trkpt lat="43.760985" lon="11.1775063"><ele>43.0</ele><time>2026-04-22T11:46:01.461Z</time></trkpt><trkpt lat="43.7609634" lon="11.1776051"><ele>43.0</ele><time>2026-04-22T11:46:06.399Z</time></trkpt><trkpt lat="43.7609295" lon="11.1776822"><ele>43.0</ele><time>2026-04-22T11:46:10.28Z</time></trkpt><trkpt lat="43.7608925" lon="11.1777603"><ele>43.0</ele><time>2026-04-22T11:46:14.348Z</time></trkpt><trkpt lat="43.7608553" lon="11.1778473"><ele>43.00000000000001</ele><time>2026-04-22T11:46:19.348Z</time></trkpt><trkpt lat="43.7608233" lon="11.177929"><ele>43.0</ele><time>2026-04-22T11:46:25.421Z</time></trkpt><trkpt lat="43.7607892" lon="11.1780093"><ele>43.00000000000001</ele><time>2026-04-22T11:46:30.421Z</time></trkpt><trkpt lat="43.7608027" lon="11.1781067"><ele>43.0</ele><time>2026-04-22T11:46:35.398Z</time></trkpt><trkpt lat="43.7607682" lon="11.1781907"><ele>43.0</ele><time>2026-04-22T11:46:45.421Z</time></trkpt><trkpt lat="43.7607228" lon="11.1782551"><ele>43.0</ele><time>2026-04-22T11:46:50.421Z</time></trkpt><trkpt lat="43.7606761" lon="11.1783175"><ele>43.0</ele><time>2026-04-22T11:46:54.443Z</time></trkpt><trkpt lat="43.7606316" lon="11.1784048"><ele>43.00000000000001</ele><time>2026-04-22T11:47:01.421Z</time></trkpt><trkpt lat="43.7605953" lon="11.1784891"><ele>43.0</ele><time>2026-04-22T11:47:06.399Z</time></trkpt><trkpt lat="43.7605574" lon="11.1785799"><ele>43.00000000000001</ele><time>2026-04-22T11:47:12.378Z</time></trkpt><trkpt lat="43.7605198" lon="11.1786687"><ele>43.0</ele><time>2026-04-22T11:47:17.217Z</time></trkpt><trkpt lat="43.7604963" lon="11.178754"><ele>43.0</ele><time>2026-04-22T11:47:21.399Z</time></trkpt><trkpt lat="43.7604771" lon="11.1788402"><ele>43.0</ele><time>2026-04-22T11:47:30.422Z</time></trkpt><trkpt lat="43.7604298" lon="11.1789055"><ele>43.0</ele><time>2026-04-22T11:47:39.347Z</time></trkpt><trkpt lat="43.7603779" lon="11.1789587"><ele>43.00000000000001</ele><time>2026-04-22T11:47:44.277Z</time></trkpt><trkpt lat="43.7603189" lon="11.1790042"><ele>43.0</ele><time>2026-04-22T11:47:49.347Z</time></trkpt><trkpt lat="43.7602768" lon="11.1790821"><ele>43.00000000000001</ele><time>2026-04-22T11:47:55.422Z</time></trkpt><trkpt lat="43.760247" lon="11.1791643"><ele>43.0</ele><time>2026-04-22T11:48:00.32Z</time></trkpt><trkpt lat="43.7602136" lon="11.1792464"><ele>43.0</ele><time>2026-04-22T11:48:06.401Z</time></trkpt><trkpt lat="43.7601724" lon="11.1793349"><ele>43.0</ele><time>2026-04-22T11:48:12.361Z</time></trkpt><trkpt lat="43.760138" lon="11.179419"><ele>43.0</ele><time>2026-04-22T11:48:16.402Z</time></trkpt><trkpt lat="43.7601033" lon="11.1794959"><ele>43.00000000000001</ele><time>2026-04-22T11:48:20.361Z</time></trkpt><trkpt lat="43.7600618" lon="11.179579"><ele>43.0</ele><time>2026-04-22T11:48:27.38Z</time></trkpt><trkpt lat="43.760023" lon="11.1796631"><ele>43.142857142857146</ele><time>2026-04-22T11:48:32.38Z</time></trkpt><trkpt lat="43.7599547" lon="11.179653"><ele>43.285714285714285</ele><time>2026-04-22T11:48:40.381Z</time></trkpt><trkpt lat="43.7599047" lon="11.1797231"><ele>43.42857142857143</ele><time>2026-04-22T11:48:47.381Z</time></trkpt><trkpt lat="43.7598442" lon="11.1797734"><ele>43.57142857142857</ele><time>2026-04-22T11:48:52.38Z</time></trkpt><trkpt lat="43.7597835" lon="11.1798108"><ele>43.714285714285715</ele><time>2026-04-22T11:48:57.38Z</time></trkpt><trkpt lat="43.7597444" lon="11.1798797"><ele>43.85714285714286</ele><time>2026-04-22T11:49:01.402Z</time></trkpt><trkpt lat="43.7596954" lon="11.1799612"><ele>44.0</ele><time>2026-04-22T11:49:06.402Z</time></trkpt><trkpt lat="43.7596512" lon="11.1800454"><ele>44.0</ele><time>2026-04-22T11:49:12.38Z</time></trkpt><trkpt lat="43.7596192" lon="11.1801251"><ele>44.0</ele><time>2026-04-22T11:49:17.357Z</time></trkpt><trkpt lat="43.7596441" lon="11.1802113"><ele>44.0</ele><time>2026-04-22T11:49:25.424Z</time></trkpt><trkpt lat="43.7596145" lon="11.180309"><ele>44.0</ele><time>2026-04-22T11:49:33.358Z</time></trkpt><trkpt lat="43.7595747" lon="11.1803927"><ele>44.0</ele><time>2026-04-22T11:49:39.418Z</time></trkpt><trkpt lat="43.7595296" lon="11.1804636"><ele>44.0</ele><time>2026-04-22T11:49:44.347Z</time></trkpt><trkpt lat="43.7595002" lon="11.1805414"><ele>44.0</ele><time>2026-04-22T11:49:49.348Z</time></trkpt><trkpt lat="43.7594786" lon="11.1806239"><ele>44.0</ele><time>2026-04-22T11:49:53.304Z</time></trkpt><trkpt lat="43.7594421" lon="11.1807101"><ele>44.0</ele><time>2026-04-22T11:49:58.358Z</time></trkpt><trkpt lat="43.7594126" lon="11.1807991"><ele>44.0</ele><time>2026-04-22T11:50:03.358Z</time></trkpt><trkpt lat="43.75938" lon="11.1808785"><ele>44.0</ele><time>2026-04-22T11:50:08.301Z</time></trkpt><trkpt lat="43.7593237" lon="11.1809251"><ele>44.0</ele><time>2026-04-22T11:50:16.339Z</time></trkpt><trkpt lat="43.7593449" lon="11.1810168"><ele>44.0</ele><time>2026-04-22T11:50:21.347Z</time></trkpt><trkpt lat="43.7593468" lon="11.1811112"><ele>44.0</ele><time>2026-04-22T11:50:29.445Z</time></trkpt><trkpt lat="43.759306" lon="11.1811953"><ele>44.142857142857146</ele><time>2026-04-22T11:50:33.357Z</time></trkpt><trkpt lat="43.7592744" lon="11.1812741"><ele>44.285714285714285</ele><time>2026-04-22T11:50:37.379Z</time></trkpt><trkpt lat="43.7592436" lon="11.1813649"><ele>44.42857142857143</ele><time>2026-04-22T11:50:42.378Z</time></trkpt><trkpt lat="43.759219" lon="11.1814588"><ele>44.57142857142857</ele><time>2026-04-22T11:50:47.378Z</time></trkpt><trkpt lat="43.7591922" lon="11.1815453"><ele>44.714285714285715</ele><time>2026-04-22T11:50:52.361Z</time></trkpt><trkpt lat="43.7591535" lon="11.1816321"><ele>44.857142857142854</ele><time>2026-04-22T11:50:58.356Z</time></trkpt><trkpt lat="43.7591295" lon="11.1817222"><ele>45.0</ele><time>2026-04-22T11:51:04.279Z</time></trkpt><trkpt lat="43.759091" lon="11.1818045"><ele>45.0</ele><time>2026-04-22T11:51:09.347Z</time></trkpt><trkpt lat="43.7590573" lon="11.1818904"><ele>45.0</ele><time>2026-04-22T11:51:14.119Z</time></trkpt><trkpt lat="43.7590191" lon="11.1819603"><ele>45.0</ele><time>2026-04-22T11:51:19.438Z</time></trkpt><trkpt lat="43.7589862" lon="11.1820441"><ele>45.0</ele><time>2026-04-22T11:51:24.381Z</time></trkpt><trkpt lat="43.7589597" lon="11.1821308"><ele>45.0</ele><time>2026-04-22T11:51:33.351Z</time></trkpt><trkpt lat="43.7589024" lon="11.1822021"><ele>45.0</ele><time>2026-04-22T11:51:43.351Z</time></trkpt><trkpt lat="43.7588222" lon="11.1822255"><ele>45.0</ele><time>2026-04-22T11:51:47.373Z</time></trkpt><trkpt lat="43.7587413" lon="11.1822402"><ele>45.0</ele><time>2026-04-22T11:51:51.396Z</time></trkpt><trkpt lat="43.7586822" lon="11.1822782"><ele>45.0</ele><time>2026-04-22T11:51:56.394Z</time></trkpt><trkpt lat="43.7586287" lon="11.1823491"><ele>45.0</ele><time>2026-04-22T11:52:01.394Z</time></trkpt><trkpt lat="43.7585893" lon="11.182419"><ele>45.0</ele><time>2026-04-22T11:52:06.394Z</time></trkpt><trkpt lat="43.7585313" lon="11.1824894"><ele>45.0</ele><time>2026-04-22T11:52:12.303Z</time></trkpt><trkpt lat="43.7584786" lon="11.1825538"><ele>45.0</ele><time>2026-04-22T11:52:16.394Z</time></trkpt><trkpt lat="43.7584218" lon="11.1826152"><ele>45.0</ele><time>2026-04-22T11:52:21.394Z</time></trkpt><trkpt lat="43.7583718" lon="11.1826973"><ele>44.857142857142854</ele><time>2026-04-22T11:52:25.416Z</time></trkpt><trkpt lat="43.7583284" lon="11.1827746"><ele>44.714285714285715</ele><time>2026-04-22T11:52:30.416Z</time></trkpt><trkpt lat="43.7582917" lon="11.1828574"><ele>44.57142857142857</ele><time>2026-04-22T11:52:35.417Z</time></trkpt><trkpt lat="43.7582732" lon="11.1829478"><ele>44.42857142857143</ele><time>2026-04-22T11:52:39.347Z</time></trkpt><trkpt lat="43.7582168" lon="11.1830054"><ele>44.285714285714285</ele><time>2026-04-22T11:52:45.417Z</time></trkpt><trkpt lat="43.758207" lon="11.1830948"><ele>44.142857142857146</ele><time>2026-04-22T11:52:55.416Z</time></trkpt><trkpt lat="43.7582678" lon="11.1831609"><ele>44.0</ele><time>2026-04-22T11:53:01.461Z</time></trkpt><trkpt lat="43.7583185" lon="11.1832148"><ele>43.85714285714286</ele><time>2026-04-22T11:53:05.416Z</time></trkpt><trkpt lat="43.7583887" lon="11.1832906"><ele>43.714285714285715</ele><time>2026-04-22T11:53:10.416Z</time></trkpt><trkpt lat="43.7584048" lon="11.1833761"><ele>43.57142857142857</ele><time>2026-04-22T11:53:15.399Z</time></trkpt><trkpt lat="43.7583991" lon="11.1834669"><ele>43.42857142857143</ele><time>2026-04-22T11:53:21.394Z</time></trkpt><trkpt lat="43.7583728" lon="11.1835501"><ele>43.285714285714285</ele><time>2026-04-22T11:53:26.394Z</time></trkpt><trkpt lat="43.7583319" lon="11.1836269"><ele>43.142857142857146</ele><time>2026-04-22T11:53:30.307Z</time></trkpt><trkpt lat="43.7582956" lon="11.1837165"><ele>43.0</ele><time>2026-04-22T11:53:35.417Z</time></trkpt><trkpt lat="43.7583453" lon="11.183777"><ele>43.00000000000001</ele><time>2026-04-22T11:53:42.373Z</time></trkpt><trkpt lat="43.7583856" lon="11.183849"><ele>43.0</ele><time>2026-04-22T11:53:48.298Z</time></trkpt><trkpt lat="43.7583565" lon="11.1839303"><ele>43.0</ele><time>2026-04-22T11:53:53.417Z</time></trkpt><trkpt lat="43.7583193" lon="11.1840159"><ele>43.0</ele><time>2026-04-22T11:53:58.396Z</time></trkpt><trkpt lat="43.7582833" lon="11.1840914"><ele>43.0</ele><time>2026-04-22T11:54:02.387Z</time></trkpt><trkpt lat="43.758252" lon="11.1841751"><ele>43.00000000000001</ele><time>2026-04-22T11:54:07.367Z</time></trkpt><trkpt lat="43.758213" lon="11.1842483"><ele>43.0</ele><time>2026-04-22T11:54:12.367Z</time></trkpt><trkpt lat="43.7581833" lon="11.1843373"><ele>43.42857142857143</ele><time>2026-04-22T11:54:18.346Z</time></trkpt><trkpt lat="43.7581493" lon="11.1844173"><ele>43.85714285714286</ele><time>2026-04-22T11:54:23.346Z</time></trkpt><trkpt lat="43.7581128" lon="11.1844912"><ele>44.28571428571429</ele><time>2026-04-22T11:54:27.367Z</time></trkpt><trkpt lat="43.7580711" lon="11.1845739"><ele>44.714285714285715</ele><time>2026-04-22T11:54:32.368Z</time></trkpt><trkpt lat="43.7580438" lon="11.1846553"><ele>45.14285714285714</ele><time>2026-04-22T11:54:39.432Z</time></trkpt><trkpt lat="43.7580042" lon="11.184732"><ele>45.57142857142858</ele><time>2026-04-22T11:54:45.412Z</time></trkpt><trkpt lat="43.7579661" lon="11.1848128"><ele>46.0</ele><time>2026-04-22T11:54:51.318Z</time></trkpt><trkpt lat="43.7579315" lon="11.1848858"><ele>46.0</ele><time>2026-04-22T11:54:55.798Z</time></trkpt><trkpt lat="43.757892" lon="11.1849754"><ele>46.0</ele><time>2026-04-22T11:55:00.318Z</time></trkpt><trkpt lat="43.7578489" lon="11.1850573"><ele>46.0</ele><time>2026-04-22T11:55:04.346Z</time></trkpt><trkpt lat="43.7578124" lon="11.1851316"><ele>46.0</ele><time>2026-04-22T11:55:08.346Z</time></trkpt><trkpt lat="43.7577453" lon="11.1851408"><ele>46.0</ele><time>2026-04-22T11:55:16.389Z</time></trkpt><trkpt lat="43.7576842" lon="11.1851193"><ele>46.0</ele><time>2026-04-22T11:55:21.383Z</time></trkpt><trkpt lat="43.7576178" lon="11.1850799"><ele>46.0</ele><time>2026-04-22T11:55:25.406Z</time></trkpt><trkpt lat="43.7575618" lon="11.1850291"><ele>46.0</ele><time>2026-04-22T11:55:30.406Z</time></trkpt><trkpt lat="43.7574989" lon="11.1849929"><ele>46.0</ele><time>2026-04-22T11:55:36.383Z</time></trkpt><trkpt lat="43.7574365" lon="11.1849499"><ele>46.0</ele><time>2026-04-22T11:55:42.362Z</time></trkpt><trkpt lat="43.7573761" lon="11.1849117"><ele>46.0</ele><time>2026-04-22T11:55:47.3Z</time></trkpt><trkpt lat="43.7573096" lon="11.1848592"><ele>46.0</ele><time>2026-04-22T11:55:52.362Z</time></trkpt><trkpt lat="43.7572424" lon="11.1848074"><ele>46.0</ele><time>2026-04-22T11:55:57.361Z</time></trkpt><trkpt lat="43.7571873" lon="11.1847612"><ele>46.0</ele><time>2026-04-22T11:56:02.361Z</time></trkpt><trkpt lat="43.7571335" lon="11.1847108"><ele>46.285714285714285</ele><time>2026-04-22T11:56:07.418Z</time></trkpt><trkpt lat="43.7570779" lon="11.1846651"><ele>46.57142857142857</ele><time>2026-04-22T11:56:12.361Z</time></trkpt><trkpt lat="43.7570232" lon="11.1846162"><ele>46.857142857142854</ele><time>2026-04-22T11:56:16.383Z</time></trkpt><trkpt lat="43.7569689" lon="11.1845668"><ele>47.14285714285714</ele><time>2026-04-22T11:56:21.383Z</time></trkpt><trkpt lat="43.7569035" lon="11.1845112"><ele>47.42857142857143</ele><time>2026-04-22T11:56:27.361Z</time></trkpt><trkpt lat="43.7568359" lon="11.1844663"><ele>47.71428571428571</ele><time>2026-04-22T11:56:32.361Z</time></trkpt><trkpt lat="43.7567702" lon="11.1844154"><ele>48.0</ele><time>2026-04-22T11:56:38.978Z</time></trkpt><trkpt lat="43.756711" lon="11.1843671"><ele>47.99999999999999</ele><time>2026-04-22T11:56:44.34Z</time></trkpt><trkpt lat="43.7566607" lon="11.1842881"><ele>48.0</ele><time>2026-04-22T11:56:50.406Z</time></trkpt><trkpt lat="43.7566019" lon="11.1842351"><ele>48.0</ele><time>2026-04-22T11:56:58.346Z</time></trkpt><trkpt lat="43.7566268" lon="11.1841382"><ele>48.0</ele><time>2026-04-22T11:57:04.339Z</time></trkpt><trkpt lat="43.7566794" lon="11.1840658"><ele>48.0</ele><time>2026-04-22T11:57:08.448Z</time></trkpt><trkpt lat="43.7567287" lon="11.183981"><ele>47.99999999999999</ele><time>2026-04-22T11:57:11.383Z</time></trkpt><trkpt lat="43.756771" lon="11.1839014"><ele>48.0</ele><time>2026-04-22T11:57:14.3Z</time></trkpt><trkpt lat="43.7568152" lon="11.1838262"><ele>47.99999999999999</ele><time>2026-04-22T11:57:17.361Z</time></trkpt><trkpt lat="43.7568576" lon="11.1837552"><ele>48.0</ele><time>2026-04-22T11:57:20.405Z</time></trkpt><trkpt lat="43.7569041" lon="11.1836929"><ele>48.0</ele><time>2026-04-22T11:57:23.346Z</time></trkpt><trkpt lat="43.756933" lon="11.1836015"><ele>48.0</ele><time>2026-04-22T11:57:28.346Z</time></trkpt><trkpt lat="43.7569678" lon="11.1835149"><ele>48.0</ele><time>2026-04-22T11:57:33.346Z</time></trkpt><trkpt lat="43.7570008" lon="11.1834289"><ele>47.99999999999999</ele><time>2026-04-22T11:57:39.427Z</time></trkpt><trkpt lat="43.7570294" lon="11.1833437"><ele>48.0</ele><time>2026-04-22T11:57:45.405Z</time></trkpt><trkpt lat="43.7570669" lon="11.1832604"><ele>47.99999999999999</ele><time>2026-04-22T11:57:52.362Z</time></trkpt><trkpt lat="43.7571074" lon="11.1831927"><ele>48.0</ele><time>2026-04-22T11:57:58.346Z</time></trkpt><trkpt lat="43.7571422" lon="11.1831176"><ele>48.0</ele><time>2026-04-22T11:58:03.337Z</time></trkpt><trkpt lat="43.7571833" lon="11.1830445"><ele>48.0</ele><time>2026-04-22T11:58:08.346Z</time></trkpt><trkpt lat="43.7572196" lon="11.1829603"><ele>48.0</ele><time>2026-04-22T11:58:15.417Z</time></trkpt><trkpt lat="43.7572639" lon="11.1828898"><ele>47.99999999999999</ele><time>2026-04-22T11:58:21.385Z</time></trkpt><trkpt lat="43.7573034" lon="11.1828121"><ele>48.0</ele><time>2026-04-22T11:58:25.962Z</time></trkpt><trkpt lat="43.7573309" lon="11.1827192"><ele>47.71428571428571</ele><time>2026-04-22T11:58:31.385Z</time></trkpt><trkpt lat="43.757339" lon="11.1826166"><ele>47.42857142857143</ele><time>2026-04-22T11:58:43.45Z</time></trkpt><trkpt lat="43.7573485" lon="11.1825214"><ele>47.14285714285714</ele><time>2026-04-22T11:58:50.407Z</time></trkpt><trkpt lat="43.7573916" lon="11.1824438"><ele>46.857142857142854</ele><time>2026-04-22T11:58:56.386Z</time></trkpt><trkpt lat="43.7574217" lon="11.1823453"><ele>46.57142857142857</ele><time>2026-04-22T11:59:01.386Z</time></trkpt><trkpt lat="43.7574644" lon="11.1822593"><ele>46.285714285714285</ele><time>2026-04-22T11:59:05.408Z</time></trkpt><trkpt lat="43.7575077" lon="11.1821848"><ele>46.0</ele><time>2026-04-22T11:59:10.408Z</time></trkpt><trkpt lat="43.7575389" lon="11.1821048"><ele>45.85714285714286</ele><time>2026-04-22T11:59:16.386Z</time></trkpt><trkpt lat="43.7575751" lon="11.1820262"><ele>45.71428571428571</ele><time>2026-04-22T11:59:20.408Z</time></trkpt><trkpt lat="43.7576187" lon="11.1819463"><ele>45.57142857142857</ele><time>2026-04-22T11:59:25.408Z</time></trkpt><trkpt lat="43.7576569" lon="11.181872"><ele>45.42857142857143</ele><time>2026-04-22T11:59:31.387Z</time></trkpt><trkpt lat="43.757693" lon="11.1817777"><ele>45.28571428571429</ele><time>2026-04-22T11:59:37.366Z</time></trkpt><trkpt lat="43.7577146" lon="11.1816924"><ele>45.14285714285714</ele><time>2026-04-22T11:59:42.441Z</time></trkpt><trkpt lat="43.7577468" lon="11.1815998"><ele>45.0</ele><time>2026-04-22T11:59:48.459Z</time></trkpt><trkpt lat="43.7577835" lon="11.181511"><ele>45.0</ele><time>2026-04-22T11:59:55.409Z</time></trkpt><trkpt lat="43.7578195" lon="11.1814186"><ele>45.0</ele><time>2026-04-22T12:00:01.388Z</time></trkpt><trkpt lat="43.7578493" lon="11.1813349"><ele>45.0</ele><time>2026-04-22T12:00:07.366Z</time></trkpt><trkpt lat="43.757882" lon="11.1812551"><ele>45.0</ele><time>2026-04-22T12:00:13.42Z</time></trkpt><trkpt lat="43.7579066" lon="11.181168"><ele>45.0</ele><time>2026-04-22T12:00:19.432Z</time></trkpt><trkpt lat="43.7579474" lon="11.1810853"><ele>45.0</ele><time>2026-04-22T12:00:24.432Z</time></trkpt><trkpt lat="43.7579218" lon="11.1809918"><ele>45.0</ele><time>2026-04-22T12:00:31.389Z</time></trkpt><trkpt lat="43.7578793" lon="11.1809022"><ele>45.0</ele><time>2026-04-22T12:00:38.455Z</time></trkpt><trkpt lat="43.7578625" lon="11.1808035"><ele>45.0</ele><time>2026-04-22T12:00:45.412Z</time></trkpt><trkpt lat="43.7578424" lon="11.1807167"><ele>45.0</ele><time>2026-04-22T12:00:52.369Z</time></trkpt><trkpt lat="43.7578471" lon="11.1806179"><ele>44.0</ele><time>2026-04-22T12:01:00.413Z</time></trkpt><trkpt lat="43.7577784" lon="11.1805479"><ele>44.0</ele><time>2026-04-22T12:01:04.345Z</time></trkpt><trkpt lat="43.7577216" lon="11.180506"><ele>44.0</ele><time>2026-04-22T12:01:08.46Z</time></trkpt></trkseg></trk></gpx>